createdAt,value
2022-09-28T00:00:16.339Z,10.42
2022-09-28T00:01:16.339Z,10.44
2022-09-28T00:02:16.387Z,10.40
2022-09-28T00:03:16.273Z,10.36
2022-09-28T00:04:16.246Z,10.36
2022-09-28T00:05:16.219Z,10.36
2022-09-28T00:06:16.199Z,10.36
2022-09-28T00:07:16.176Z,10.42
2022-09-28T00:08:16.150Z,10.47
2022-09-28T00:26:15.721Z,10.32
2022-09-28T00:27:15.713Z,10.29
2022-09-28T00:28:15.670Z,10.25
2022-09-28T00:29:15.645Z,10.22
2022-09-28T00:30:15.622Z,10.15
2022-09-28T00:31:15.656Z,10.17
2022-09-28T00:32:15.583Z,10.14
2022-09-28T00:33:15.562Z,10.22
2022-09-28T00:34:15.527Z,10.20
2022-09-28T00:35:15.502Z,10.14
2022-09-28T00:36:15.478Z,10.17
2022-09-28T00:37:15.454Z,10.25
2022-09-28T00:38:15.432Z,10.32
2022-09-28T00:39:15.531Z,10.30
2022-09-28T00:40:15.448Z,10.29
2022-09-28T00:41:15.358Z,10.29
2022-09-28T00:42:15.338Z,10.26
2022-09-28T00:43:15.340Z,10.17
2022-09-28T00:57:14.975Z,10.05
2022-09-28T00:58:14.952Z,10.05
2022-09-28T00:59:14.991Z,10.04
2022-09-28T01:00:14.903Z,10.11
2022-09-28T01:01:14.976Z,9.91
2022-09-28T01:02:14.919Z,9.93
2022-09-28T01:03:14.833Z,10.02
2022-09-28T01:04:14.821Z,9.99
2022-09-28T01:05:14.783Z,10.11
2022-09-28T01:06:14.780Z,10.08
2022-09-28T01:07:14.733Z,10.04
2022-09-28T01:08:14.720Z,10.09
2022-09-28T01:09:14.791Z,10.02
2022-09-28T01:10:14.659Z,9.97
2022-09-28T01:11:14.639Z,9.90
2022-09-28T01:12:14.614Z,10.05
2022-09-28T01:13:14.591Z,10.04
2022-09-28T01:14:14.565Z,9.99
2022-09-28T01:15:14.563Z,9.91
2022-09-28T01:16:14.585Z,10.02
2022-09-28T01:28:14.227Z,10.11
2022-09-28T01:29:14.359Z,10.14
2022-09-28T01:30:14.182Z,10.11
2022-09-28T01:31:14.239Z,10.09
2022-09-28T01:32:14.134Z,10.09
2022-09-28T01:33:14.111Z,10.14
2022-09-28T01:34:14.086Z,10.14
2022-09-28T01:35:14.058Z,10.11
2022-09-28T01:36:14.039Z,10.15
2022-09-28T01:37:14.015Z,10.07
2022-09-28T01:38:13.987Z,10.07
2022-09-28T01:39:14.087Z,10.01
2022-09-28T01:40:13.937Z,10.04
2022-09-28T01:41:13.917Z,10.01
2022-09-28T01:42:13.895Z,10.02
2022-09-28T01:43:13.866Z,10.08
2022-09-28T01:44:13.841Z,10.11
2022-09-28T01:45:13.819Z,10.09
2022-09-28T01:46:13.867Z,10.07
2022-09-28T01:47:13.791Z,10.05
2022-09-28T01:48:13.747Z,9.99
2022-09-28T01:49:13.791Z,10.04
2022-09-28T01:50:13.699Z,10.05
2022-09-28T02:01:13.493Z,9.90
2022-09-28T02:02:13.656Z,9.84
2022-09-28T02:03:13.405Z,9.83
2022-09-28T02:04:13.355Z,9.87
2022-09-28T02:05:13.334Z,9.86
2022-09-28T02:06:13.307Z,9.87
2022-09-28T02:07:13.284Z,9.83
2022-09-28T02:08:13.260Z,9.89
2022-09-28T02:09:13.287Z,9.86
2022-09-28T02:10:13.214Z,9.81
2022-09-28T02:11:13.190Z,9.81
2022-09-28T02:12:13.166Z,9.86
2022-09-28T02:13:13.142Z,9.78
2022-09-28T02:14:13.114Z,9.84
2022-09-28T02:15:13.090Z,9.81
2022-09-28T02:16:13.124Z,9.83
2022-09-28T02:17:13.042Z,9.81
2022-09-28T02:18:13.019Z,9.72
2022-09-28T02:19:13.109Z,9.81
2022-09-28T02:20:12.969Z,9.81
2022-09-28T02:21:12.948Z,9.89
2022-09-28T02:22:12.921Z,9.91
2022-09-28T02:23:12.901Z,9.89
2022-09-28T02:24:12.873Z,9.87
2022-09-28T02:25:12.849Z,9.91
2022-09-28T02:33:12.652Z,10.01
2022-09-28T02:34:12.630Z,9.99
2022-09-28T02:35:12.663Z,9.93
2022-09-28T02:36:12.580Z,9.87
2022-09-28T02:37:12.556Z,9.86
2022-09-28T02:38:12.533Z,9.81
2022-09-28T02:39:12.580Z,9.86
2022-09-28T02:40:12.483Z,9.83
2022-09-28T02:41:12.461Z,9.84
2022-09-28T02:42:12.436Z,9.83
2022-09-28T02:43:12.411Z,9.79
2022-09-28T02:44:12.387Z,9.83
2022-09-28T02:45:12.361Z,9.81
2022-09-28T02:46:12.387Z,9.79
2022-09-28T02:47:12.314Z,9.84
2022-09-28T02:48:12.287Z,9.84
2022-09-28T02:49:24.370Z,9.86
2022-09-28T02:50:12.240Z,9.81
2022-09-28T02:51:12.241Z,9.71
2022-09-28T02:52:12.189Z,9.76
2022-09-28T02:53:12.168Z,9.71
2022-09-28T02:54:16.658Z,9.75
2022-09-28T02:55:12.121Z,9.74
2022-09-28T02:56:12.093Z,9.79
2022-09-28T02:57:12.072Z,9.81
2022-09-28T02:58:12.051Z,9.83
2022-09-28T02:59:12.023Z,9.74
2022-09-28T03:03:11.930Z,9.83
2022-09-28T03:04:11.901Z,9.86
2022-09-28T03:05:11.875Z,9.83
2022-09-28T03:06:11.850Z,9.76
2022-09-28T03:07:11.849Z,9.87
2022-09-28T03:08:11.802Z,9.91
2022-09-28T03:09:11.779Z,9.87
2022-09-28T03:10:11.758Z,9.93
2022-09-28T03:11:11.729Z,9.96
2022-09-28T03:12:11.703Z,9.79
2022-09-28T03:13:11.681Z,9.84
2022-09-28T03:14:11.654Z,9.81
2022-09-28T03:15:11.634Z,9.81
2022-09-28T03:16:11.698Z,9.86
2022-09-28T03:17:11.583Z,9.74
2022-09-28T03:18:11.557Z,9.86
2022-09-28T03:19:11.535Z,9.89
2022-09-28T03:20:11.509Z,9.81
2022-09-28T03:21:11.487Z,9.78
2022-09-28T03:22:11.462Z,9.75
2022-09-28T03:23:26.899Z,9.75
2022-09-28T03:24:11.413Z,9.74
2022-09-28T03:25:11.395Z,9.71
2022-09-28T03:26:11.364Z,9.78
2022-09-28T03:27:11.340Z,9.66
2022-09-28T03:28:11.315Z,9.75
2022-09-28T03:29:11.378Z,9.76
2022-09-28T03:30:11.266Z,9.74
2022-09-28T03:31:11.306Z,9.74
2022-09-28T03:32:11.219Z,9.75
2022-09-28T03:33:11.194Z,9.83
2022-09-28T03:36:11.119Z,9.76
2022-09-28T03:37:11.096Z,9.86
2022-09-28T03:38:11.075Z,9.78
2022-09-28T03:39:11.160Z,9.74
2022-09-28T03:40:11.026Z,9.72
2022-09-28T03:41:10.998Z,9.83
2022-09-28T03:42:10.974Z,9.79
2022-09-28T03:43:10.950Z,9.81
2022-09-28T03:44:10.923Z,9.74
2022-09-28T03:45:10.901Z,9.71
2022-09-28T03:46:10.923Z,9.69
2022-09-28T03:47:10.855Z,9.71
2022-09-28T03:48:10.828Z,9.71
2022-09-28T03:49:10.900Z,9.72
2022-09-28T03:50:10.784Z,9.76
2022-09-28T03:51:10.759Z,9.81
2022-09-28T03:52:10.730Z,9.91
2022-09-28T03:53:10.707Z,9.91
2022-09-28T03:54:10.679Z,9.81
2022-09-28T03:55:10.680Z,9.81
2022-09-28T03:56:10.631Z,9.86
2022-09-28T03:57:10.608Z,9.78
2022-09-28T03:58:10.583Z,9.79
2022-09-28T03:59:10.600Z,9.76
2022-09-28T04:00:10.535Z,9.74
2022-09-28T04:01:14.198Z,9.74
2022-09-28T04:02:10.561Z,9.69
2022-09-28T04:03:10.462Z,9.68
2022-09-28T04:04:10.433Z,9.68
2022-09-28T04:05:10.415Z,9.72
2022-09-28T04:06:10.386Z,9.72
2022-09-28T04:08:10.345Z,9.69
2022-09-28T04:09:10.381Z,9.72
2022-09-28T04:40:09.554Z,9.75
2022-09-28T04:41:09.547Z,9.68
2022-09-28T04:42:09.507Z,9.75
2022-09-28T05:17:08.650Z,9.86
2022-09-28T05:18:08.650Z,9.96
2022-09-28T05:19:08.603Z,9.99
2022-09-28T05:20:08.581Z,9.87
2022-09-28T05:21:08.554Z,9.87
2022-09-28T05:22:08.529Z,9.89
2022-09-28T05:23:08.509Z,9.89
2022-09-28T05:47:07.953Z,9.75
2022-09-28T05:48:07.893Z,9.71
2022-09-28T05:49:07.872Z,9.81
2022-09-28T05:50:07.847Z,9.83
2022-09-28T05:51:07.827Z,9.83
2022-09-28T05:52:07.795Z,9.72
2022-09-28T05:53:07.776Z,9.75
2022-09-28T05:54:07.749Z,9.72
2022-09-28T05:55:07.725Z,9.74
2022-09-28T06:17:07.228Z,9.74
2022-09-28T06:18:07.165Z,9.69
2022-09-28T06:19:07.164Z,9.65
2022-09-28T06:20:07.117Z,9.78
2022-09-28T06:21:07.091Z,9.74
2022-09-28T06:22:07.062Z,9.76
2022-09-28T06:23:07.037Z,9.68
2022-09-28T06:24:07.017Z,9.75
2022-09-28T06:25:07.004Z,9.74
2022-09-28T06:26:06.974Z,9.72
2022-09-28T06:27:06.943Z,9.69
2022-09-28T06:46:06.502Z,9.81
2022-09-28T06:47:06.449Z,9.83
2022-09-28T06:48:06.425Z,9.79
2022-09-28T06:49:06.402Z,9.78
2022-09-28T06:50:06.378Z,9.86
2022-09-28T06:51:06.371Z,9.71
2022-09-28T06:52:06.330Z,9.74
2022-09-28T06:53:06.301Z,9.79
2022-09-28T06:54:06.279Z,9.71
2022-09-28T06:55:06.254Z,9.79
2022-09-28T06:56:06.229Z,9.83
2022-09-28T06:57:06.207Z,9.79
2022-09-28T06:58:06.179Z,9.78
2022-09-28T07:12:05.837Z,9.75
2022-09-28T07:13:06.996Z,9.71
2022-09-28T07:14:05.815Z,9.72
2022-09-28T07:15:05.779Z,9.74
2022-09-28T07:16:05.742Z,9.65
2022-09-28T07:17:13.690Z,9.72
2022-09-28T07:18:05.813Z,9.74
2022-09-28T07:19:05.664Z,9.71
2022-09-28T07:20:16.611Z,9.76
2022-09-28T07:21:05.623Z,9.79
2022-09-28T07:22:05.827Z,9.83
2022-09-28T07:23:17.375Z,9.71
2022-09-28T07:38:05.202Z,9.87
2022-09-28T07:39:05.203Z,9.97
2022-09-28T07:40:05.157Z,9.87
2022-09-28T07:41:05.246Z,9.91
2022-09-28T07:42:05.114Z,9.91
2022-09-28T07:43:05.079Z,9.90
2022-09-28T07:44:05.054Z,9.91
2022-09-28T07:45:05.027Z,9.96
2022-09-28T07:46:05.058Z,9.94
2022-09-28T07:47:04.982Z,9.93
2022-09-28T07:48:04.992Z,9.97
2022-09-28T07:49:08.291Z,9.90
2022-09-28T07:50:04.912Z,9.84
2022-09-28T07:51:04.888Z,9.84
2022-09-28T07:52:04.859Z,10.01
2022-09-28T07:53:04.841Z,9.96
2022-09-28T07:54:04.813Z,9.86
2022-09-28T08:06:04.521Z,9.87
2022-09-28T08:07:04.491Z,9.89
2022-09-28T08:08:04.468Z,9.93
2022-09-28T08:09:04.443Z,9.93
2022-09-28T08:10:04.419Z,9.96
2022-09-28T08:11:04.437Z,10.09
2022-09-28T08:12:04.369Z,10.05
2022-09-28T08:13:06.427Z,10.12
2022-09-28T08:14:04.322Z,10.11
2022-09-28T08:15:04.296Z,10.09
2022-09-28T08:16:04.274Z,10.08
2022-09-28T08:17:04.249Z,10.02
2022-09-28T08:18:04.225Z,10.07
2022-09-28T08:19:04.202Z,10.14
2022-09-28T08:20:04.176Z,10.23
2022-09-28T08:21:04.150Z,10.26
2022-09-28T08:22:04.128Z,10.33
2022-09-28T08:23:04.102Z,10.25
2022-09-28T08:24:04.078Z,10.32
2022-09-28T08:25:04.057Z,10.36
2022-09-28T08:26:04.027Z,10.26
2022-09-28T08:27:04.031Z,10.36
2022-09-28T08:37:03.761Z,10.14
2022-09-28T08:38:03.738Z,10.18
2022-09-28T08:39:03.716Z,10.12
2022-09-28T08:40:03.698Z,10.17
2022-09-28T08:41:03.816Z,10.12
2022-09-28T08:42:03.639Z,10.11
2022-09-28T08:43:03.637Z,10.15
2022-09-28T08:44:03.592Z,10.30
2022-09-28T08:45:03.567Z,10.36
2022-09-28T08:46:03.601Z,10.33
2022-09-28T08:47:03.517Z,10.44
2022-09-28T08:48:03.495Z,10.40
2022-09-28T08:49:33.588Z,10.45
2022-09-28T08:50:03.446Z,10.52
2022-09-28T08:51:03.431Z,10.56
2022-09-28T08:52:03.406Z,10.53
2022-09-28T08:53:03.372Z,10.45
2022-09-28T08:54:05.764Z,10.48
2022-09-28T08:55:03.325Z,10.40
2022-09-28T08:56:03.320Z,10.38
2022-09-28T08:57:03.286Z,10.27
2022-09-28T08:58:03.257Z,10.22
2022-09-28T09:06:03.060Z,10.45
2022-09-28T09:07:03.032Z,10.48
2022-09-28T09:08:03.010Z,10.48
2022-09-28T09:09:02.986Z,10.55
2022-09-28T09:10:02.961Z,10.47
2022-09-28T09:11:02.936Z,10.55
2022-09-28T09:12:02.920Z,10.67
2022-09-28T09:13:02.895Z,10.64
2022-09-28T09:14:02.864Z,10.61
2022-09-28T09:15:02.872Z,10.71
2022-09-28T09:16:02.820Z,10.67
2022-09-28T09:17:02.826Z,10.70
2022-09-28T09:18:02.770Z,10.66
2022-09-28T09:19:02.748Z,10.64
2022-09-28T09:20:02.719Z,10.67
2022-09-28T09:21:02.699Z,10.71
2022-09-28T09:22:02.670Z,10.71
2022-09-28T09:23:02.648Z,10.70
2022-09-28T09:24:02.627Z,10.68
2022-09-28T09:25:02.596Z,10.61
2022-09-28T09:26:02.576Z,10.66
2022-09-28T09:27:02.551Z,10.63
2022-09-28T09:28:02.527Z,10.60
2022-09-28T09:29:02.507Z,10.59
2022-09-28T09:35:02.357Z,10.78
2022-09-28T09:36:02.334Z,10.86
2022-09-28T09:37:02.311Z,10.97
2022-09-28T09:38:02.284Z,11.00
2022-09-28T09:39:02.261Z,11.00
2022-09-28T09:40:02.258Z,11.21
2022-09-28T09:41:02.326Z,11.18
2022-09-28T09:42:02.189Z,11.28
2022-09-28T09:43:02.165Z,11.24
2022-09-28T09:44:02.140Z,11.10
2022-09-28T09:45:02.115Z,11.09
2022-09-28T09:46:02.149Z,11.09
2022-09-28T09:47:02.099Z,10.92
2022-09-28T09:48:02.044Z,10.99
2022-09-28T09:49:02.027Z,10.99
2022-09-28T09:50:05.353Z,11.09
2022-09-28T09:51:01.972Z,11.07
2022-09-28T09:52:01.951Z,11.18
2022-09-28T09:53:01.930Z,11.35
2022-09-28T09:54:01.903Z,11.37
2022-09-28T09:55:01.875Z,11.39
2022-09-28T09:56:01.863Z,11.49
2022-09-28T09:57:01.833Z,11.57
2022-09-28T09:58:01.805Z,11.67
2022-09-28T09:59:01.781Z,11.67
2022-09-28T10:00:01.757Z,11.73
2022-09-28T10:01:01.776Z,11.79
2022-09-28T10:04:01.666Z,11.75
2022-09-28T10:05:01.676Z,11.98
2022-09-28T10:06:01.617Z,11.95
2022-09-28T10:07:01.593Z,12.13
2022-09-28T10:08:01.569Z,12.13
2022-09-28T10:09:01.543Z,12.19
2022-09-28T10:10:01.525Z,12.31
2022-09-28T10:11:01.497Z,12.42
2022-09-28T10:12:01.477Z,12.52
2022-09-28T10:13:01.449Z,12.47
2022-09-28T10:14:01.431Z,12.54
2022-09-28T10:15:01.408Z,12.52
2022-09-28T10:16:01.378Z,12.41
2022-09-28T10:17:01.456Z,12.41
2022-09-28T10:18:01.342Z,12.31
2022-09-28T10:19:01.330Z,12.12
2022-09-28T10:20:01.286Z,11.95
2022-09-28T10:21:01.264Z,11.96
2022-09-28T10:22:01.239Z,11.78
2022-09-28T10:23:01.224Z,11.54
2022-09-28T10:24:01.197Z,11.55
2022-09-28T10:25:01.173Z,11.51
2022-09-28T10:26:01.145Z,11.46
2022-09-28T10:27:01.127Z,11.39
2022-09-28T10:28:01.118Z,11.40
2022-09-28T10:29:01.080Z,11.46
2022-09-28T10:30:01.104Z,11.42
2022-09-28T10:31:01.177Z,11.51
2022-09-28T10:32:01.003Z,11.60
2022-09-28T10:33:00.981Z,11.75
2022-09-28T10:34:00.956Z,11.69
2022-09-28T10:36:00.914Z,11.75
2022-09-28T10:37:00.890Z,11.69
2022-09-28T10:38:00.861Z,11.72
2022-09-28T10:39:00.839Z,11.72
2022-09-28T10:40:00.814Z,11.64
2022-09-28T10:41:00.907Z,11.75
2022-09-28T10:42:00.767Z,11.76
2022-09-28T10:43:00.743Z,11.91
2022-09-28T10:44:00.742Z,11.96
2022-09-28T10:45:00.696Z,11.99
2022-09-28T10:46:00.758Z,11.95
2022-09-28T10:47:00.649Z,12.09
2022-09-28T10:48:00.625Z,12.12
2022-09-28T10:49:00.603Z,12.19
2022-09-28T10:50:00.578Z,12.23
2022-09-28T10:51:00.575Z,12.19
2022-09-28T10:52:00.532Z,12.20
2022-09-28T10:53:00.510Z,12.17
2022-09-28T10:54:00.486Z,12.20
2022-09-28T10:55:00.462Z,12.24
2022-09-28T10:56:00.439Z,12.31
2022-09-28T10:57:00.416Z,12.28
2022-09-28T10:58:00.392Z,12.24
2022-09-28T11:05:00.234Z,12.38
2022-09-28T11:31:59.597Z,12.24
2022-09-28T11:32:59.572Z,12.31
2022-09-28T11:33:59.545Z,12.32
2022-09-28T11:57:58.979Z,12.05
2022-09-28T11:58:58.958Z,12.17
2022-09-28T11:59:58.932Z,12.20
2022-09-28T12:00:58.912Z,12.09
2022-09-28T12:01:58.944Z,12.10
2022-09-28T12:02:59.008Z,12.10
2022-09-28T12:23:58.368Z,12.19
2022-09-28T12:24:58.352Z,12.19
2022-09-28T12:25:58.328Z,12.19
2022-09-28T12:26:58.331Z,12.24
2022-09-28T12:27:58.279Z,12.19
2022-09-28T12:28:58.252Z,12.28
2022-09-28T12:29:58.228Z,12.29
2022-09-28T12:49:43.629Z,12.82
2022-09-28T12:50:58.357Z,12.83
2022-09-28T12:51:57.717Z,12.96
2022-09-28T12:53:00.729Z,12.95
2022-09-28T12:53:57.674Z,13.03
2022-09-28T12:54:57.701Z,13.11
2022-09-28T13:15:57.248Z,13.78
2022-09-28T13:17:00.532Z,13.81
2022-09-28T13:17:57.116Z,13.85
2022-09-28T13:18:57.094Z,13.71
2022-09-28T13:19:57.068Z,13.79
2022-09-28T13:20:57.047Z,13.82
2022-09-28T13:21:57.020Z,13.88
2022-09-28T13:22:57.001Z,13.97
2022-09-28T13:24:08.682Z,13.92
2022-09-28T13:24:56.962Z,13.92
2022-09-28T13:43:56.520Z,13.69
2022-09-28T13:44:56.498Z,13.70
2022-09-28T13:45:56.518Z,13.73
2022-09-28T13:46:56.476Z,13.66
2022-09-28T13:47:56.433Z,13.63
2022-09-28T13:48:56.407Z,13.69
2022-09-28T13:49:56.383Z,13.59
2022-09-28T13:50:56.366Z,13.48
2022-09-28T13:51:56.337Z,13.45
2022-09-28T13:52:56.316Z,13.32
2022-09-28T13:53:56.294Z,13.29
2022-09-28T13:54:56.270Z,13.28
2022-09-28T13:55:56.248Z,13.26
2022-09-28T14:11:55.880Z,13.19
2022-09-28T14:12:55.862Z,13.26
2022-09-28T14:13:55.833Z,13.29
2022-09-28T14:14:55.811Z,13.26
2022-09-28T14:15:55.815Z,13.28
2022-09-28T14:16:55.765Z,13.22
2022-09-28T14:17:55.743Z,13.36
2022-09-28T14:18:55.741Z,13.44
2022-09-28T14:19:55.697Z,13.48
2022-09-28T14:20:55.673Z,13.57
2022-09-28T14:21:55.647Z,13.64
2022-09-28T14:22:55.628Z,13.67
2022-09-28T14:23:59.070Z,13.73
2022-09-28T14:24:55.618Z,13.71
2022-09-28T14:25:55.569Z,13.78
2022-09-28T14:40:55.380Z,13.92
2022-09-28T14:41:55.197Z,14.02
2022-09-28T14:42:55.182Z,14.00
2022-09-28T14:43:55.153Z,14.00
2022-09-28T14:44:55.131Z,14.15
2022-09-28T14:45:55.156Z,14.22
2022-09-28T14:46:55.083Z,14.20
2022-09-28T14:47:55.062Z,14.27
2022-09-28T14:48:55.046Z,14.32
2022-09-28T14:49:55.017Z,14.37
2022-09-28T14:50:55.027Z,14.43
2022-09-28T14:51:54.986Z,14.40
2022-09-28T14:52:54.949Z,14.40
2022-09-28T14:53:54.929Z,14.39
2022-09-28T14:54:54.956Z,14.36
2022-09-28T14:55:54.881Z,14.43
2022-09-28T14:56:54.859Z,14.46
2022-09-28T14:57:54.837Z,14.52
2022-09-28T14:58:54.817Z,14.42
2022-09-28T15:12:54.501Z,14.54
2022-09-28T15:13:54.484Z,14.46
2022-09-28T15:14:54.454Z,14.51
2022-09-28T15:15:54.636Z,14.55
2022-09-28T15:16:54.407Z,14.39
2022-09-28T15:17:54.386Z,14.47
2022-09-28T15:18:54.365Z,14.39
2022-09-28T15:19:54.341Z,14.45
2022-09-28T15:20:54.316Z,14.35
2022-09-28T15:21:54.296Z,14.29
2022-09-28T15:22:54.301Z,14.22
2022-09-28T15:23:54.249Z,14.21
2022-09-28T15:24:56.647Z,14.22
2022-09-28T15:25:54.206Z,14.20
2022-09-28T15:26:54.182Z,14.22
2022-09-28T15:27:54.174Z,14.22
2022-09-28T15:28:54.135Z,14.21
2022-09-28T15:29:54.114Z,14.17
2022-09-28T15:30:54.108Z,14.17
2022-09-28T15:40:53.937Z,14.07
2022-09-28T15:41:53.848Z,14.04
2022-09-28T15:42:57.097Z,14.03
2022-09-28T15:43:53.799Z,14.09
2022-09-28T15:44:53.773Z,14.04
2022-09-28T15:45:53.814Z,14.02
2022-09-28T15:46:53.727Z,14.04
2022-09-28T15:47:53.705Z,14.07
2022-09-28T15:48:53.683Z,13.92
2022-09-28T15:49:53.660Z,14.03
2022-09-28T15:50:53.638Z,14.03
2022-09-28T15:51:53.613Z,14.03
2022-09-28T15:52:53.591Z,13.96
2022-09-28T15:53:53.570Z,13.96
2022-09-28T15:54:53.566Z,13.91
2022-09-28T15:55:53.523Z,13.92
2022-09-28T15:56:53.500Z,13.89
2022-09-28T15:57:53.480Z,13.88
2022-09-28T15:58:53.455Z,13.87
2022-09-28T15:59:53.430Z,13.87
2022-09-28T16:00:53.409Z,13.79
2022-09-28T16:01:53.444Z,13.85
2022-09-28T16:09:53.204Z,13.57
2022-09-28T16:10:53.202Z,13.60
2022-09-28T16:11:53.160Z,13.63
2022-09-28T16:12:53.135Z,13.60
2022-09-28T16:13:53.110Z,13.55
2022-09-28T16:14:53.088Z,13.64
2022-09-28T16:15:53.114Z,13.59
2022-09-28T16:16:53.041Z,13.59
2022-09-28T16:17:53.023Z,13.49
2022-09-28T16:18:52.999Z,13.54
2022-09-28T16:19:52.976Z,13.49
2022-09-28T16:20:52.950Z,13.51
2022-09-28T16:21:52.930Z,13.44
2022-09-28T16:22:52.905Z,13.46
2022-09-28T16:23:52.882Z,13.44
2022-09-28T16:24:52.861Z,13.45
2022-09-28T16:25:52.842Z,13.39
2022-09-28T16:26:52.843Z,13.33
2022-09-28T16:27:52.793Z,13.38
2022-09-28T16:28:52.769Z,13.39
2022-09-28T16:29:52.747Z,13.28
2022-09-28T16:30:52.753Z,13.28
2022-09-28T16:31:52.705Z,13.30
2022-09-28T16:32:52.678Z,13.33
2022-09-28T16:38:52.540Z,13.08
2022-09-28T16:39:52.514Z,13.12
2022-09-28T16:40:52.566Z,13.14
2022-09-28T16:41:52.473Z,13.10
2022-09-28T16:42:52.477Z,13.15
2022-09-28T16:43:52.427Z,13.10
2022-09-28T16:44:52.401Z,13.03
2022-09-28T16:45:52.446Z,12.95
2022-09-28T16:46:52.465Z,13.05
2022-09-28T16:47:52.342Z,13.05
2022-09-28T16:48:52.313Z,13.03
2022-09-28T16:49:52.290Z,12.93
2022-09-28T16:50:52.266Z,12.87
2022-09-28T16:51:52.242Z,12.89
2022-09-28T16:52:54.799Z,12.79
2022-09-28T16:53:52.201Z,12.86
2022-09-28T16:54:52.173Z,12.78
2022-09-28T16:55:52.149Z,12.77
2022-09-28T16:56:52.125Z,12.72
2022-09-28T16:57:52.111Z,12.68
2022-09-28T16:58:52.252Z,12.65
2022-09-28T16:59:52.059Z,12.60
2022-09-28T17:00:52.036Z,12.62
2022-09-28T17:04:51.942Z,12.50
2022-09-28T17:05:51.921Z,12.52
2022-09-28T17:06:51.898Z,12.56
2022-09-28T17:07:51.880Z,12.50
2022-09-28T17:08:51.852Z,12.50
2022-09-28T17:09:51.831Z,12.50
2022-09-28T17:11:13.076Z,12.39
2022-09-28T17:11:51.783Z,12.39
2022-09-28T17:12:51.757Z,12.32
2022-09-28T17:13:51.794Z,12.46
2022-09-28T17:14:51.731Z,12.47
2022-09-28T17:15:51.738Z,12.29
2022-09-28T17:17:07.452Z,12.38
2022-09-28T17:17:51.645Z,12.32
2022-09-28T17:18:51.617Z,12.37
2022-09-28T17:19:51.599Z,12.37
2022-09-28T17:20:51.575Z,12.28
2022-09-28T17:21:51.553Z,12.42
2022-09-28T17:22:51.532Z,12.41
2022-09-28T17:23:51.505Z,12.39
2022-09-28T17:24:51.481Z,12.41
2022-09-28T17:25:51.462Z,12.41
2022-09-28T17:28:51.404Z,12.38
2022-09-28T17:29:51.373Z,12.42
2022-09-28T17:30:51.417Z,12.49
2022-09-28T17:31:51.318Z,12.37
2022-09-28T17:32:51.293Z,12.50
2022-09-28T17:33:51.271Z,12.37
2022-09-28T17:35:00.884Z,12.39
2022-09-28T17:35:51.283Z,12.34
2022-09-28T17:36:51.204Z,12.41
2022-09-28T17:37:51.177Z,12.49
2022-09-28T17:38:51.155Z,12.50
2022-09-28T17:39:51.132Z,12.45
2022-09-28T17:41:51.086Z,12.50
2022-09-28T17:42:51.063Z,12.45
2022-09-28T17:43:51.038Z,12.45
2022-09-28T17:44:51.017Z,12.32
2022-09-28T17:45:51.062Z,12.42
2022-09-28T17:46:50.994Z,12.38
2022-09-28T17:47:50.948Z,12.39
2022-09-28T17:48:50.928Z,12.41
2022-09-28T17:49:50.903Z,12.46
2022-09-28T17:50:50.879Z,12.45
2022-09-28T17:51:50.857Z,12.42
2022-09-28T17:52:50.843Z,12.39
2022-09-28T17:53:50.805Z,12.37
2022-09-28T17:54:50.782Z,12.31
2022-09-28T17:55:50.763Z,12.28
2022-09-28T17:56:50.741Z,12.28
2022-09-28T17:57:50.720Z,12.28
2022-09-28T17:58:50.695Z,12.34
2022-09-28T17:59:50.669Z,12.37
2022-09-28T18:00:50.653Z,12.34
2022-09-28T18:01:50.728Z,12.34
2022-09-28T18:02:50.783Z,12.23
2022-09-28T18:03:50.577Z,12.19
2022-09-28T18:04:52.617Z,12.19
2022-09-28T18:05:50.531Z,12.17
2022-09-28T18:06:50.504Z,12.20
2022-09-28T18:07:50.486Z,12.19
2022-09-28T18:08:50.459Z,12.09
2022-09-28T18:09:50.443Z,12.13
2022-09-28T18:10:50.417Z,12.07
2022-09-28T18:11:50.394Z,12.17
2022-09-28T18:25:50.060Z,12.10
2022-09-28T18:26:50.036Z,12.10
2022-09-28T18:50:49.489Z,11.91
2022-09-28T18:51:49.455Z,12.01
2022-09-28T18:52:49.432Z,11.86
2022-09-28T18:53:49.407Z,11.79
2022-09-28T19:16:48.865Z,12.04
2022-09-28T19:17:48.840Z,11.91
2022-09-28T19:18:48.812Z,11.96
2022-09-28T19:19:48.790Z,11.86
2022-09-28T19:20:48.764Z,11.88
2022-09-28T19:21:48.783Z,11.91
2022-09-28T19:45:48.236Z,11.82
2022-09-28T19:46:48.158Z,11.80
2022-09-28T19:47:48.132Z,11.78
2022-09-28T19:48:48.108Z,11.70
2022-09-28T19:49:48.084Z,11.75
2022-09-28T19:50:48.062Z,11.62
2022-09-28T19:52:11.014Z,11.57
2022-09-28T19:52:48.015Z,11.51
2022-09-28T20:15:47.506Z,11.17
2022-09-28T20:16:47.451Z,11.22
2022-09-28T20:17:47.429Z,11.18
2022-09-28T20:18:47.408Z,11.25
2022-09-28T20:19:47.379Z,11.15
2022-09-28T20:20:47.359Z,11.22
2022-09-28T20:21:47.336Z,11.17
2022-09-28T20:22:47.310Z,11.17
2022-09-28T20:23:47.293Z,11.17
2022-09-28T20:38:46.932Z,10.94
2022-09-28T20:39:46.908Z,10.88
2022-09-28T20:40:46.947Z,10.92
2022-09-28T20:41:46.858Z,10.94
2022-09-28T20:42:46.874Z,10.92
2022-09-28T20:43:46.810Z,10.92
2022-09-28T20:44:46.793Z,10.91
2022-09-28T20:45:46.768Z,10.82
2022-09-28T20:46:46.786Z,10.88
2022-09-28T20:47:46.717Z,10.82
2022-09-28T21:02:46.550Z,10.53
2022-09-28T21:03:46.337Z,10.53
2022-09-28T21:04:46.314Z,10.51
2022-09-28T21:05:46.304Z,10.48
2022-09-28T21:06:46.267Z,10.55
2022-09-28T21:07:46.240Z,10.60
2022-09-28T21:08:46.220Z,10.56
2022-09-28T21:09:46.199Z,10.59
2022-09-28T21:10:46.170Z,10.51
2022-09-28T21:11:46.145Z,10.55
2022-09-28T21:12:46.124Z,10.51
2022-09-28T21:13:46.099Z,10.55
2022-09-28T21:14:46.097Z,10.53
2022-09-28T21:28:45.740Z,10.56
2022-09-28T21:29:45.716Z,10.59
2022-09-28T21:30:45.752Z,10.56
2022-09-28T21:31:45.732Z,10.59
2022-09-28T21:32:45.649Z,10.52
2022-09-28T21:33:45.622Z,10.63
2022-09-28T21:34:45.597Z,10.55
2022-09-28T21:35:45.577Z,10.55
2022-09-28T21:36:45.551Z,10.53
2022-09-28T21:37:45.524Z,10.60
2022-09-28T21:38:45.502Z,10.51
2022-09-28T21:39:45.474Z,10.63
2022-09-28T21:40:45.531Z,10.60
2022-09-28T21:41:45.427Z,10.52
2022-09-28T21:42:45.403Z,10.59
2022-09-28T21:43:45.380Z,10.53
2022-09-28T21:44:45.357Z,10.55
2022-09-28T21:58:45.021Z,10.51
2022-09-28T21:59:45.001Z,10.48
2022-09-28T22:00:44.972Z,10.48
2022-09-28T22:01:45.061Z,10.52
2022-09-28T22:02:45.094Z,10.48
2022-09-28T22:03:44.905Z,10.55
2022-09-28T22:04:44.877Z,10.52
2022-09-28T22:05:44.851Z,10.47
2022-09-28T22:06:44.827Z,10.55
2022-09-28T22:07:44.808Z,10.48
2022-09-28T22:08:44.777Z,10.53
2022-09-28T22:09:44.762Z,10.53
2022-09-28T22:10:44.729Z,10.55
2022-09-28T22:11:44.704Z,10.48
2022-09-28T22:12:44.683Z,10.52
2022-09-28T22:13:44.660Z,10.59
2022-09-28T22:25:44.366Z,10.48
2022-09-28T22:26:44.344Z,10.47
2022-09-28T22:27:44.318Z,10.53
2022-09-28T22:28:44.297Z,10.51
2022-09-28T22:29:44.277Z,10.51
2022-09-28T22:30:44.284Z,10.60
2022-09-28T22:31:44.309Z,10.51
2022-09-28T22:32:44.198Z,10.55
2022-09-28T22:33:44.174Z,10.51
2022-09-28T22:34:44.174Z,10.44
2022-09-28T22:35:44.125Z,10.41
2022-09-28T22:36:44.103Z,10.48
2022-09-28T22:37:44.077Z,10.48
2022-09-28T22:38:44.054Z,10.51
2022-09-28T22:39:44.027Z,10.42
2022-09-28T22:40:44.045Z,10.55
2022-09-28T22:41:43.980Z,10.53
2022-09-28T22:42:43.957Z,10.53
2022-09-28T22:43:43.935Z,10.59
2022-09-28T22:44:43.909Z,10.48
2022-09-28T22:53:43.690Z,10.48
2022-09-28T22:54:43.667Z,10.47
2022-09-28T22:55:43.642Z,10.47
2022-09-28T22:56:43.622Z,10.59
2022-09-28T22:57:43.598Z,10.53
2022-09-28T22:58:43.573Z,10.48
2022-09-28T22:59:43.546Z,10.48
2022-09-28T23:00:43.524Z,10.55
2022-09-28T23:01:43.598Z,10.47
2022-09-28T23:02:43.517Z,10.59
2022-09-28T23:03:43.449Z,10.66
2022-09-28T23:04:43.427Z,10.48
2022-09-28T23:05:43.401Z,10.47
2022-09-28T23:06:43.399Z,10.55
2022-09-28T23:07:43.352Z,10.53
2022-09-28T23:08:43.333Z,10.60
2022-09-28T23:09:43.308Z,10.61
2022-09-28T23:10:43.289Z,10.59
2022-09-28T23:11:43.258Z,10.52
2022-09-28T23:12:43.236Z,10.61
2022-09-28T23:13:43.212Z,10.52
2022-09-28T23:14:43.187Z,10.60
2022-09-28T23:15:43.195Z,10.68
2022-09-28T23:23:42.979Z,10.61
2022-09-28T23:24:42.945Z,10.53
2022-09-28T23:25:42.921Z,10.53
2022-09-28T23:26:42.897Z,10.55
2022-09-28T23:27:42.875Z,10.53
2022-09-28T23:28:42.851Z,10.48
2022-09-28T23:29:42.826Z,10.51
2022-09-28T23:30:42.801Z,10.48
2022-09-28T23:31:42.885Z,10.59
2022-09-28T23:32:42.753Z,10.59
2022-09-28T23:33:42.735Z,10.53
2022-09-28T23:34:42.707Z,10.53